AFR763A TFFR-LFPG
Flight info
| Callsign | AFR763A |
|---|---|
| Flight time | N/A |
| Altitude | 33000 |
| Route | CAIRN2F CAIRN DCT CITRS/M084F330 DCT 20N055W 23N050W 31N040W/M084F350 36N030W 4030N02000W DCT BANAL/N0482F360 DCT PETEK DCT LOTEE DCT GATMO DCT NTS UN741 ANG/N0482F300 UN741 TEMTO DCT ROMGO |
| Aircraft | B77W/H-SDE1E2E3FGHIJ2J3J4J5M1RWXY/LB1D1 |
Departure
| Time | 2026-04-29 14:05 |
|---|---|
| Airport | Maryse Condé International Airport (TFFR) |
Arrival
| Time | N/A |
|---|---|
| Airport | Charles de Gaulle International Airport (LFPG) |
| Time | Latitude | Longitude | Altitude | Speed | Heading |
|---|---|---|---|---|---|
| 2026-04-29 13:08 | 16.26899 | -61.52672 | 42 ft | 0 kts | 11° |
| 2026-04-29 13:54 | 16.26898 | -61.52672 | 42 ft | 1 kts | 11° |
| 2026-04-29 13:54 | 16.26883 | -61.52674 | 43 ft | 2 kts | 355° |
| 2026-04-29 13:54 | 16.26868 | -61.52671 | 44 ft | 2 kts | 342° |
| 2026-04-29 13:55 | 16.26854 | -61.52665 | 45 ft | 2 kts | 330° |
| 2026-04-29 13:55 | 16.26842 | -61.52657 | 45 ft | 2 kts | 317° |
| 2026-04-29 13:55 | 16.26832 | -61.52645 | 44 ft | 2 kts | 304° |
| 2026-04-29 13:55 | 16.26824 | -61.52632 | 43 ft | 2 kts | 292° |
| 2026-04-29 13:56 | 16.26820 | -61.52618 | 43 ft | 2 kts | 281° |
| 2026-04-29 13:56 | 16.26819 | -61.52611 | 42 ft | 0 kts | 280° |
| 2026-04-29 13:58 | 16.26820 | -61.52617 | 42 ft | 1 kts | 280° |
| 2026-04-29 13:58 | 16.26823 | -61.52634 | 42 ft | 3 kts | 281° |
| 2026-04-29 13:58 | 16.26828 | -61.52661 | 42 ft | 5 kts | 280° |
| 2026-04-29 13:58 | 16.26836 | -61.52713 | 41 ft | 9 kts | 278° |
| 2026-04-29 13:59 | 16.26849 | -61.52796 | 40 ft | 13 kts | 279° |
| 2026-04-29 13:59 | 16.26847 | -61.52883 | 39 ft | 11 kts | 244° |
| 2026-04-29 13:59 | 16.26787 | -61.52926 | 39 ft | 10 kts | 198° |
| 2026-04-29 13:59 | 16.26720 | -61.52947 | 39 ft | 9 kts | 193° |
| 2026-04-29 14:00 | 16.26660 | -61.52958 | 39 ft | 8 kts | 189° |
| 2026-04-29 14:00 | 16.26606 | -61.52968 | 39 ft | 7 kts | 190° |
| 2026-04-29 14:00 | 16.26553 | -61.52985 | 40 ft | 9 kts | 210° |
| 2026-04-29 14:00 | 16.26514 | -61.53051 | 41 ft | 12 kts | 265° |
| 2026-04-29 14:01 | 16.26522 | -61.53151 | 42 ft | 15 kts | 279° |
| 2026-04-29 14:01 | 16.26543 | -61.53269 | 44 ft | 17 kts | 281° |
| 2026-04-29 14:01 | 16.26571 | -61.53405 | 46 ft | 20 kts | 282° |
| 2026-04-29 14:01 | 16.26600 | -61.53559 | 47 ft | 23 kts | 281° |
| 2026-04-29 14:02 | 16.26630 | -61.53731 | 49 ft | 25 kts | 280° |
| 2026-04-29 14:02 | 16.26666 | -61.53922 | 50 ft | 28 kts | 281° |
| 2026-04-29 14:02 | 16.26703 | -61.54129 | 46 ft | 29 kts | 279° |
| 2026-04-29 14:02 | 16.26742 | -61.54344 | 43 ft | 30 kts | 281° |
| 2026-04-29 14:03 | 16.26786 | -61.54557 | 41 ft | 27 kts | 282° |
| 2026-04-29 14:03 | 16.26844 | -61.54684 | 40 ft | 14 kts | 306° |
| 2026-04-29 14:03 | 16.26819 | -61.54710 | 40 ft | 6 kts | 128° |
| 2026-04-29 14:03 | 16.26804 | -61.54661 | 40 ft | 9 kts | 101° |
| 2026-04-29 14:04 | 16.26789 | -61.54573 | 41 ft | 15 kts | 101° |
| 2026-04-29 14:04 | 16.26741 | -61.54323 | 44 ft | 70 kts | 101° |
| 2026-04-29 14:04 | 16.26602 | -61.53563 | 48 ft | 141 kts | 101° |
| 2026-04-29 14:04 | 16.26364 | -61.52367 | 193 ft | 186 kts | 104° |
| 2026-04-29 14:05 | 16.26077 | -61.51160 | 1253 ft | 169 kts | 102° |
| 2026-04-29 14:05 | 16.25855 | -61.49837 | 1455 ft | 207 kts | 99° |
| 2026-04-29 14:05 | 16.25584 | -61.48259 | 1771 ft | 237 kts | 100° |
| 2026-04-29 14:05 | 16.25274 | -61.46530 | 2578 ft | 251 kts | 100° |
| 2026-04-29 14:06 | 16.24953 | -61.44736 | 3599 ft | 257 kts | 101° |
| 2026-04-29 14:06 | 16.24688 | -61.42937 | 4687 ft | 259 kts | 90° |
| 2026-04-29 14:06 | 16.25083 | -61.41138 | 5699 ft | 266 kts | 62° |
| 2026-04-29 14:06 | 16.26305 | -61.39693 | 6697 ft | 273 kts | 41° |
| 2026-04-29 14:07 | 16.27785 | -61.38459 | 7715 ft | 276 kts | 41° |
| 2026-04-29 14:07 | 16.29304 | -61.37220 | 8715 ft | 280 kts | 38° |
| 2026-04-29 14:07 | 16.30855 | -61.36038 | 9629 ft | 284 kts | 37° |
| 2026-04-29 14:07 | 16.32486 | -61.34820 | 10453 ft | 292 kts | 37° |
| 2026-04-29 14:08 | 16.34233 | -61.33533 | 10526 ft | 329 kts | 36° |
| 2026-04-29 14:08 | 16.36202 | -61.32103 | 10916 ft | 353 kts | 36° |
| 2026-04-29 14:08 | 16.38211 | -61.30644 | 11858 ft | 358 kts | 36° |
| 2026-04-29 14:08 | 16.40256 | -61.29160 | 12820 ft | 361 kts | 35° |
| 2026-04-29 14:09 | 16.42318 | -61.27665 | 13669 ft | 367 kts | 35° |
| 2026-04-29 14:09 | 16.44454 | -61.26120 | 14408 ft | 376 kts | 34° |
| 2026-04-29 14:09 | 16.46612 | -61.24556 | 15146 ft | 383 kts | 34° |
| 2026-04-29 14:09 | 16.48828 | -61.22952 | 15890 ft | 390 kts | 34° |
| 2026-04-29 14:10 | 16.51050 | -61.21342 | 16577 ft | 396 kts | 34° |
| 2026-04-29 14:10 | 16.53323 | -61.19695 | 17283 ft | 402 kts | 34° |
| 2026-04-29 14:10 | 16.55654 | -61.18003 | 17953 ft | 408 kts | 34° |
| 2026-04-29 14:10 | 16.58001 | -61.16300 | 18615 ft | 414 kts | 34° |
| 2026-04-29 14:11 | 16.60370 | -61.14581 | 19288 ft | 419 kts | 33° |
| 2026-04-29 14:11 | 16.62758 | -61.12848 | 19928 ft | 424 kts | 33° |
| 2026-04-29 14:11 | 16.65195 | -61.11079 | 20569 ft | 428 kts | 33° |
| 2026-04-29 14:11 | 16.67672 | -61.09278 | 21161 ft | 433 kts | 33° |
| 2026-04-29 14:12 | 16.70144 | -61.07482 | 21736 ft | 438 kts | 33° |
| 2026-04-29 14:12 | 16.72669 | -61.05648 | 22286 ft | 444 kts | 33° |
| 2026-04-29 14:12 | 16.75204 | -61.03804 | 22836 ft | 449 kts | 33° |
| 2026-04-29 14:12 | 16.77781 | -61.01930 | 23469 ft | 452 kts | 32° |
| 2026-04-29 14:13 | 16.80352 | -61.00060 | 24008 ft | 456 kts | 32° |
| 2026-04-29 14:13 | 16.82974 | -60.98151 | 24557 ft | 461 kts | 32° |
| 2026-04-29 14:13 | 16.85638 | -60.96211 | 25179 ft | 463 kts | 32° |
| 2026-04-29 14:13 | 16.88274 | -60.94292 | 25721 ft | 467 kts | 32° |
| 2026-04-29 14:14 | 16.90962 | -60.92333 | 26260 ft | 470 kts | 32° |
| 2026-04-29 14:14 | 16.93625 | -60.90393 | 26766 ft | 474 kts | 32° |
| 2026-04-29 14:14 | 16.96345 | -60.88409 | 27255 ft | 478 kts | 32° |
| 2026-04-29 14:14 | 16.99090 | -60.86409 | 27729 ft | 482 kts | 32° |
| 2026-04-29 14:15 | 17.01853 | -60.84392 | 28245 ft | 484 kts | 32° |
| 2026-04-29 14:15 | 17.04621 | -60.82370 | 28712 ft | 488 kts | 31° |
| 2026-04-29 14:15 | 17.07409 | -60.80335 | 29183 ft | 491 kts | 31° |
| 2026-04-29 14:15 | 17.10199 | -60.78297 | 29665 ft | 494 kts | 31° |
| 2026-04-29 14:16 | 17.13053 | -60.76211 | 30186 ft | 496 kts | 31° |
| 2026-04-29 14:16 | 17.15854 | -60.74161 | 30649 ft | 499 kts | 31° |
| 2026-04-29 14:16 | 17.18684 | -60.72024 | 31061 ft | 504 kts | 34° |
| 2026-04-29 14:16 | 17.21308 | -60.69571 | 31437 ft | 512 kts | 43° |
| 2026-04-29 14:17 | 17.23602 | -60.66685 | 31857 ft | 519 kts | 52° |
| 2026-04-29 14:17 | 17.25475 | -60.63456 | 32269 ft | 525 kts | 60° |
| 2026-04-29 14:17 | 17.26968 | -60.59927 | 32607 ft | 529 kts | 65° |
| 2026-04-29 14:17 | 17.28470 | -60.56433 | 32918 ft | 531 kts | 62° |
| 2026-04-29 14:18 | 17.31618 | -60.49494 | 33012 ft | 519 kts | 62° |
| 2026-04-29 14:18 | 17.34782 | -60.42634 | 33023 ft | 521 kts | 61° |
| 2026-04-29 14:19 | 17.37936 | -60.35804 | 33028 ft | 523 kts | 61° |
| 2026-04-29 14:19 | 17.41116 | -60.28920 | 33023 ft | 524 kts | 62° |